LICTLICG

Guest
Details From LICT - TRAPANI BIRGI
To LICG - PANTELLERIA
Flight Number -
Tags generated
Created
Modified
Stats Distance 70 nm / 130 km
Max Altitude 0 ft / 0 m
Waypoints 3
Social Downloads 0
Likes 0
Share VATSIM

Download

Looking for another format? Having issues loading an existing format? Contact us
Advertisement - Login to hide

Notes

Basic altitude profile: - Ascent Rate: 2500ft/min - Ascent Speed: 250kts - Cruise Altitude: 35000ft - Cruise Speed: 420kts - Descent Rate: 1500ft/min - Descent Speed: 250kts Options: - Use NATs: yes - Use PACOTS: yes - Use low airways: yes - Use high airways: yes

Route

LICT PAN LICG

ID Type Via Altitude Latitude Longitude Leg Dist Tot Dist Heading (true) Name
O LICT APT - 0 ft / 0 m 37.91142˚ 12.48794˚ - 0 nm - TRAPANI BIRGI
PAN VOR - 0 ft / 0 m 36.81444˚ 11.96583˚ 70 nm 70 nm 201° / 201° PANTELLERIA VOR-DME
O LICG APT - 0 ft / 0 m 36.81438˚ 11.96623˚ 0 nm 70 nm 101° / 101° PANTELLERIA

Altitude Profile

Advertisement - Login to hide

LICT

Details ICAO LICT (TPS)
Name TRAPANI BIRGI
Region Italy
Timezone Europe/Rome (UTC+2.0)
Stats Elevation 24 ft / 7 m (AMSL)
Location 37.911417° 12.487937°
Runways 1
Magnetic Variation 2.878° E

METAR

LICT 241555Z 35013KT 9999 FEW020 21/17 Q1017

Decode

TAF

Not found

Departure Runways

ID Width Length Bearing (true) Bearing (mag) Surface Threshold Offset Overrun Length
13 148 ft / 45 m 8,827 ft / 2,691 m 127.75° 124.87° Asphalt 0 ft / 0 m 1,171 ft / 357 m
31 148 ft / 45 m 8,827 ft / 2,691 m 307.76° 304.88° Asphalt 820 ft / 250 m 983 ft / 300 m

LICG

Details ICAO LICG (PNL)
Name PANTELLERIA
Region Italy
Timezone Europe/Rome (UTC+2.0)
Stats Elevation 635 ft / 194 m (AMSL)
Location 36.814378° 11.966227°
Runways 2
Magnetic Variation 2.731° E

METAR

LICG 241555Z 03006KT CAVOK 20/16 Q1017 RMK SKC VIS MIN 9999 WIND THR08 01007KT WIND THR21 05004KT BLU

Decode

TAF

Not found

Destination Runways

ID Width Length Bearing (true) Bearing (mag) Surface Threshold Offset Overrun Length
03 98 ft / 30 m 4,044 ft / 1,233 m 27.69° 24.96° Asphalt 0 ft / 0 m 0 ft / 0 m
08 148 ft / 45 m 5,449 ft / 1,661 m 76.32° 73.59° Asphalt 0 ft / 0 m 0 ft / 0 m
21 98 ft / 30 m 4,044 ft / 1,233 m 207.69° 204.96° Asphalt 0 ft / 0 m 0 ft / 0 m
26 148 ft / 45 m 5,449 ft / 1,661 m 256.33° 253.60° Asphalt 0 ft / 0 m 0 ft / 0 m

Approach Navaids

Runway Type Ident Frequency Range Bearing (true) Bearing (mag) Slope Elevation
26 Localiser IPTL 110.90 MHz 18 nm / 33 km 256.33° 253.60° - 635 ft / 194 m (AMSL)
26 DME IPTL 110.90 MHz 18 nm / 33 km - - - 635 ft / 194 m (AMSL)

Popular Alternatives